createdAt,value
2018-10-17T00:01:07.737Z,24.53
2018-10-17T00:02:17.175Z,24.53
2018-10-17T00:03:26.354Z,24.5
2018-10-17T00:04:35.780Z,24.52
2018-10-17T00:05:45.446Z,24.43
2018-10-17T00:06:54.616Z,24.58
2018-10-17T00:08:04.601Z,24.5
2018-10-17T00:09:13.838Z,24.46
2018-10-17T00:10:23.277Z,24.52
2018-10-17T00:11:32.707Z,24.5
2018-10-17T00:12:42.637Z,24.49
2018-10-17T00:13:51.806Z,24.47
2018-10-17T00:15:01.479Z,24.49
2018-10-17T00:16:10.383Z,24.49
2018-10-17T00:17:19.300Z,24.47
2018-10-17T00:18:28.486Z,24.47
2018-10-17T00:19:37.903Z,24.58
2018-10-17T00:20:47.328Z,24.55
2018-10-17T00:21:57.299Z,24.49
2018-10-17T00:23:07.330Z,24.43
2018-10-17T00:24:17.148Z,24.46
2018-10-17T00:25:26.995Z,24.45
2018-10-17T00:26:36.676Z,24.47
2018-10-17T00:27:45.829Z,24.42
2018-10-17T00:28:55.329Z,24.47
2018-10-17T00:30:05.145Z,24.53
2018-10-17T00:31:15.556Z,24.5
2018-10-17T00:32:24.681Z,24.46
2018-10-17T00:33:33.850Z,24.5
2018-10-17T00:34:43.794Z,24.49
2018-10-17T00:35:52.951Z,24.45
2018-10-17T00:37:03.052Z,24.46
2018-10-17T00:38:12.798Z,24.49
2018-10-17T00:39:21.715Z,24.42
2018-10-17T00:40:31.715Z,24.46
2018-10-17T00:41:40.946Z,24.37
2018-10-17T00:42:50.635Z,24.45
2018-10-17T00:44:00.396Z,24.47
2018-10-17T00:45:09.801Z,24.45
2018-10-17T00:46:19.225Z,24.45
2018-10-17T00:47:28.649Z,24.47
2018-10-17T00:48:37.895Z,24.39
2018-10-17T00:49:47.563Z,24.42
2018-10-17T00:50:56.201Z,24.42
2018-10-17T00:52:05.870Z,24.37
2018-10-17T00:53:15.524Z,24.39
2018-10-17T00:54:25.249Z,24.43
2018-10-17T00:55:35.263Z,24.5
2018-10-17T00:56:44.688Z,24.52
2018-10-17T00:57:54.113Z,24.37
2018-10-17T00:59:03.620Z,24.43
2018-10-17T01:00:13.339Z,24.4
2018-10-17T01:01:23.273Z,24.37
2018-10-17T01:02:32.670Z,24.34
2018-10-17T01:03:41.562Z,24.4
2018-10-17T01:04:51.235Z,24.45
2018-10-17T01:06:00.851Z,24.32
2018-10-17T01:07:10.905Z,24.34
2018-10-17T01:08:21.014Z,24.46
2018-10-17T01:09:30.191Z,24.45
2018-10-17T01:10:39.872Z,24.47
2018-10-17T01:11:48.508Z,24.31
2018-10-17T01:12:58.260Z,24.43
2018-10-17T01:14:08.036Z,24.42
2018-10-17T01:15:17.441Z,24.46
2018-10-17T01:16:27.111Z,24.45
2018-10-17T01:17:36.278Z,24.45
2018-10-17T01:18:45.687Z,24.42
2018-10-17T01:19:55.386Z,24.42
2018-10-17T01:21:05.117Z,24.4
2018-10-17T01:22:14.556Z,24.47
2018-10-17T01:23:24.553Z,24.43
2018-10-17T01:24:33.979Z,24.4
2018-10-17T01:25:43.148Z,24.47
2018-10-17T01:26:52.822Z,24.45
2018-10-17T01:28:01.983Z,24.35
2018-10-17T01:29:11.984Z,24.4
2018-10-17T01:30:22.236Z,24.34
2018-10-17T01:31:31.683Z,24.4
2018-10-17T01:32:40.861Z,24.31
2018-10-17T01:33:50.525Z,24.28
2018-10-17T01:35:00.004Z,24.31
2018-10-17T01:36:09.529Z,24.31
2018-10-17T01:37:19.523Z,24.39
2018-10-17T01:38:28.927Z,24.45
2018-10-17T01:39:38.084Z,24.28
2018-10-17T01:40:47.245Z,24.31
2018-10-17T01:41:56.743Z,24.3
2018-10-17T01:43:05.870Z,24.42
2018-10-17T01:44:16.170Z,24.32
2018-10-17T01:45:24.812Z,24.35
2018-10-17T01:46:34.233Z,24.42
2018-10-17T01:47:43.126Z,24.32
2018-10-17T01:48:52.293Z,24.3
2018-10-17T01:50:02.317Z,24.4
2018-10-17T01:51:11.787Z,24.37
2018-10-17T01:52:21.467Z,24.31
2018-10-17T01:53:31.147Z,24.34
2018-10-17T01:54:40.806Z,24.28
2018-10-17T01:55:49.958Z,24.34
2018-10-17T01:56:59.624Z,24.28
2018-10-17T01:58:09.045Z,24.4
2018-10-17T01:59:18.038Z,24.4
2018-10-17T02:00:27.464Z,24.27
2018-10-17T02:01:37.393Z,24.4
2018-10-17T02:02:46.812Z,24.35
2018-10-17T02:03:56.752Z,24.4
2018-10-17T02:05:06.647Z,24.45
2018-10-17T02:06:16.560Z,24.37
2018-10-17T02:07:26.486Z,24.4
2018-10-17T02:08:35.945Z,24.31
2018-10-17T02:09:44.851Z,24.35
2018-10-17T02:10:53.786Z,24.27
2018-10-17T02:12:03.861Z,24.43
2018-10-17T02:13:13.743Z,24.32
2018-10-17T02:14:23.514Z,24.27
2018-10-17T02:15:32.669Z,24.4
2018-10-17T02:16:41.423Z,24.32
2018-10-17T02:17:50.862Z,24.27
2018-10-17T02:19:00.617Z,24.31
2018-10-17T02:20:10.156Z,24.3
2018-10-17T02:21:19.589Z,24.34
2018-10-17T02:22:29.014Z,24.3
2018-10-17T02:23:38.160Z,24.32
2018-10-17T02:24:47.847Z,24.34
2018-10-17T02:25:57.819Z,24.32
2018-10-17T02:27:07.752Z,24.32
2018-10-17T02:28:16.940Z,24.39
2018-10-17T02:29:26.120Z,24.34
2018-10-17T02:30:35.046Z,24.32
2018-10-17T02:31:44.463Z,24.32
2018-10-17T02:32:54.152Z,24.34
2018-10-17T02:34:03.576Z,24.27
2018-10-17T02:35:14.048Z,24.3
2018-10-17T02:36:24.437Z,24.34
2018-10-17T02:37:34.147Z,24.37
2018-10-17T02:38:43.851Z,24.37
2018-10-17T02:39:53.705Z,24.31
2018-10-17T02:41:03.839Z,24.28
2018-10-17T02:42:14.100Z,24.32
2018-10-17T02:43:24.014Z,24.3
2018-10-17T02:44:33.972Z,24.34
2018-10-17T02:45:43.658Z,24.32
2018-10-17T02:46:52.917Z,24.3
2018-10-17T02:48:02.690Z,24.28
2018-10-17T02:49:12.376Z,24.24
2018-10-17T02:50:22.268Z,24.28
2018-10-17T02:51:31.976Z,24.3
2018-10-17T02:52:41.427Z,24.35
2018-10-17T02:53:51.453Z,24.31
2018-10-17T02:55:00.990Z,24.34
2018-10-17T02:56:11.042Z,24.28
2018-10-17T02:57:20.986Z,24.3
2018-10-17T02:58:30.342Z,24.32
2018-10-17T02:59:40.046Z,24.28
2018-10-17T03:00:49.475Z,24.28
2018-10-17T03:01:58.952Z,24.31
2018-10-17T03:03:08.412Z,24.28
2018-10-17T03:04:18.093Z,24.3
2018-10-17T03:05:27.784Z,24.28
2018-10-17T03:06:37.211Z,24.25
2018-10-17T03:07:47.165Z,24.28
2018-10-17T03:08:56.595Z,24.3
2018-10-17T03:10:06.278Z,24.34
2018-10-17T03:11:16.068Z,24.28
2018-10-17T03:12:25.638Z,24.34
2018-10-17T03:13:35.309Z,24.3
2018-10-17T03:14:44.997Z,24.27
2018-10-17T03:15:54.466Z,24.31
2018-10-17T03:17:04.265Z,24.32
2018-10-17T03:18:14.470Z,24.3
2018-10-17T03:19:24.365Z,24.28
2018-10-17T03:20:34.412Z,24.22
2018-10-17T03:21:43.903Z,24.27
2018-10-17T03:22:53.960Z,24.3
2018-10-17T03:24:03.253Z,24.32
2018-10-17T03:25:13.047Z,24.27
2018-10-17T03:26:22.733Z,24.31
2018-10-17T03:27:32.419Z,24.28
2018-10-17T03:28:42.122Z,24.34
2018-10-17T03:29:51.567Z,24.3
2018-10-17T03:31:01.862Z,24.25
2018-10-17T03:32:11.960Z,24.27
2018-10-17T03:33:21.767Z,24.3
2018-10-17T03:34:31.687Z,24.31
2018-10-17T03:35:41.434Z,24.34
2018-10-17T03:36:50.676Z,24.31
2018-10-17T03:37:59.593Z,24.31
2018-10-17T03:39:09.029Z,24.28
2018-10-17T03:40:18.731Z,24.28
2018-10-17T03:41:28.413Z,24.27
2018-10-17T03:42:37.832Z,24.34
2018-10-17T03:43:47.425Z,24.27
2018-10-17T03:44:57.111Z,24.22
2018-10-17T03:46:07.147Z,24.28
2018-10-17T03:47:16.321Z,24.15
2018-10-17T03:48:25.804Z,24.27
2018-10-17T03:49:35.302Z,24.18
2018-10-17T03:50:45.496Z,24.3
2018-10-17T03:51:54.664Z,24.28
2018-10-17T03:53:04.780Z,24.28
2018-10-17T03:54:14.059Z,24.2
2018-10-17T03:55:23.747Z,24.28
2018-10-17T03:56:33.435Z,24.22
2018-10-17T03:57:42.650Z,24.25
2018-10-17T03:58:52.604Z,24.28
2018-10-17T04:00:02.530Z,24.3
2018-10-17T04:01:12.012Z,24.18
2018-10-17T04:02:21.629Z,24.2
2018-10-17T04:03:31.045Z,24.2
2018-10-17T04:04:39.952Z,24.31
2018-10-17T04:05:49.668Z,24.24
2018-10-17T04:07:00.137Z,24.18
2018-10-17T04:08:09.744Z,24.3
2018-10-17T04:09:19.260Z,24.28
2018-10-17T04:10:28.158Z,24.21
2018-10-17T04:11:38.101Z,24.28
2018-10-17T04:12:47.822Z,24.24
2018-10-17T04:13:56.465Z,24.27
2018-10-17T04:15:06.238Z,24.13
2018-10-17T04:16:15.651Z,24.22
2018-10-17T04:17:25.345Z,24.22
2018-10-17T04:18:34.251Z,24.25
2018-10-17T04:19:44.254Z,24.2
2018-10-17T04:20:54.068Z,24.15
2018-10-17T04:22:03.507Z,24.18
2018-10-17T04:23:13.503Z,24.16
2018-10-17T04:24:23.024Z,24.2
2018-10-17T04:25:32.480Z,24.21
2018-10-17T04:26:41.402Z,24.2
2018-10-17T04:27:50.821Z,24.16
2018-10-17T04:29:00.753Z,24.21
2018-10-17T04:30:10.361Z,24.2
2018-10-17T04:31:20.597Z,24.16
2018-10-17T04:32:30.036Z,24.24
2018-10-17T04:33:39.715Z,24.3
2018-10-17T04:34:49.163Z,24.24
2018-10-17T04:35:58.546Z,24.12
2018-10-17T04:37:08.283Z,24.15
2018-10-17T04:38:17.649Z,24.13
2018-10-17T04:39:27.573Z,24.21
2018-10-17T04:40:36.994Z,24.18
2018-10-17T04:41:46.447Z,24.2
2018-10-17T04:42:56.008Z,24.13
2018-10-17T04:44:05.561Z,24.27
2018-10-17T04:45:15.247Z,24.2
2018-10-17T04:46:24.779Z,24.18
2018-10-17T04:47:34.673Z,24.13
2018-10-17T04:48:44.522Z,24.18
2018-10-17T04:49:54.481Z,24.2
2018-10-17T04:51:03.643Z,24.24
2018-10-17T04:52:12.854Z,24.16
2018-10-17T04:53:22.352Z,24.24
2018-10-17T04:54:31.515Z,24.21
2018-10-17T04:55:41.191Z,24.21
2018-10-17T04:56:50.908Z,24.25
2018-10-17T04:58:00.379Z,24.15
2018-10-17T04:59:10.092Z,24.15
2018-10-17T05:00:19.393Z,24.15
2018-10-17T05:01:28.305Z,24.09
2018-10-17T05:02:37.487Z,24.09
2018-10-17T05:03:47.449Z,24.21
2018-10-17T05:04:57.551Z,24.18
2018-10-17T05:06:07.521Z,24.2
2018-10-17T05:07:16.899Z,24.2
2018-10-17T05:08:26.459Z,24.16
2018-10-17T05:09:35.636Z,24.18
2018-10-17T05:10:45.335Z,24.18
2018-10-17T05:11:55.020Z,24.1
2018-10-17T05:13:04.611Z,24.1
2018-10-17T05:14:14.545Z,24.15
2018-10-17T05:15:24.511Z,24.2
2018-10-17T05:16:33.799Z,24.2
2018-10-17T05:17:43.230Z,24.2
2018-10-17T05:18:52.668Z,24.2
2018-10-17T05:20:01.912Z,24.2
2018-10-17T05:21:11.904Z,24.02
2018-10-17T05:22:21.071Z,24.06
2018-10-17T05:23:30.739Z,24.08
2018-10-17T05:24:40.411Z,24.06
2018-10-17T05:25:49.320Z,24.05
2018-10-17T05:26:58.735Z,24.2
2018-10-17T05:28:08.412Z,24.06
2018-10-17T05:29:18.079Z,24.12
2018-10-17T05:30:28.024Z,24.08
2018-10-17T05:31:37.956Z,24.18
2018-10-17T05:32:47.369Z,24.06
2018-10-17T05:33:56.789Z,24.15
2018-10-17T05:35:06.463Z,24.15
2018-10-17T05:36:16.495Z,24.1
2018-10-17T05:37:26.131Z,24.13
2018-10-17T05:38:35.284Z,24.15
2018-10-17T05:39:45.077Z,24.03
2018-10-17T05:40:54.542Z,24.08
2018-10-17T05:42:04.654Z,24.18
2018-10-17T05:43:14.046Z,24.02
2018-10-17T05:44:23.929Z,24.06
2018-10-17T05:45:34.134Z,24.03
2018-10-17T05:46:43.561Z,24.06
2018-10-17T05:47:52.750Z,24.05
2018-10-17T05:49:02.094Z,24.18
2018-10-17T05:50:11.616Z,24.16
2018-10-17T05:51:20.281Z,24.15
2018-10-17T05:52:29.985Z,24.08
2018-10-17T05:53:39.418Z,24.09
2018-10-17T05:54:49.105Z,24.15
2018-10-17T05:55:58.908Z,24.1
2018-10-17T05:57:08.056Z,24.13
2018-10-17T05:58:17.246Z,24.09
2018-10-17T05:59:27.008Z,24.13
2018-10-17T06:00:36.953Z,24.12
2018-10-17T06:01:47.316Z,24.09
2018-10-17T06:02:57.142Z,24.18
2018-10-17T06:04:06.841Z,24.05
2018-10-17T06:05:16.545Z,24.06
2018-10-17T06:06:26.232Z,24.18
2018-10-17T06:07:36.109Z,24.1
2018-10-17T06:08:45.631Z,24.02
2018-10-17T06:09:54.904Z,24.08
2018-10-17T06:11:04.422Z,24.12
2018-10-17T06:12:14.411Z,24.2
2018-10-17T06:13:23.921Z,24.08
2018-10-17T06:14:33.260Z,24.18
2018-10-17T06:15:41.940Z,24.16
2018-10-17T06:16:51.212Z,24.13
2018-10-17T06:18:01.589Z,24.15
2018-10-17T06:19:11.407Z,24.09
2018-10-17T06:20:21.272Z,24.13
2018-10-17T06:21:30.835Z,24.06
2018-10-17T06:22:40.791Z,24.13
2018-10-17T06:23:50.221Z,24.09
2018-10-17T06:25:00.021Z,24.1
2018-10-17T06:26:10.171Z,24.08
2018-10-17T06:27:19.597Z,24.12
2018-10-17T06:28:29.699Z,24.06
2018-10-17T06:29:39.416Z,23.94
2018-10-17T06:30:49.547Z,24.09
2018-10-17T06:31:59.302Z,24.12
2018-10-17T06:33:08.504Z,24.02
2018-10-17T06:34:17.758Z,24.1
2018-10-17T06:35:26.602Z,24.05
2018-10-17T06:36:36.029Z,24.1
2018-10-17T06:37:45.837Z,24.15
2018-10-17T06:38:55.483Z,24
2018-10-17T06:40:04.957Z,24.09
2018-10-17T06:41:15.303Z,24.09
2018-10-17T06:42:25.525Z,24.06
2018-10-17T06:43:35.463Z,24.03
2018-10-17T06:44:45.785Z,24.08
2018-10-17T06:45:54.989Z,24.05
2018-10-17T06:47:04.930Z,24.08
2018-10-17T06:48:13.715Z,24.05
2018-10-17T06:49:23.046Z,24.02
2018-10-17T06:50:32.226Z,24.06
2018-10-17T06:51:41.944Z,24.02
2018-10-17T06:52:51.378Z,24.02
2018-10-17T06:54:01.396Z,24.05
2018-10-17T06:55:12.868Z,24.05
2018-10-17T06:56:23.629Z,24.02
2018-10-17T06:57:33.495Z,24.02
2018-10-17T06:58:42.657Z,24
2018-10-17T06:59:52.072Z,24.03
2018-10-17T07:01:02.011Z,23.98
2018-10-17T07:02:11.051Z,24.02
2018-10-17T07:03:20.975Z,24.05
2018-10-17T07:04:31.163Z,23.97
2018-10-17T07:05:40.878Z,24
2018-10-17T07:06:50.305Z,23.97
2018-10-17T07:07:59.813Z,23.93
2018-10-17T07:09:09.236Z,24
2018-10-17T07:10:19.233Z,24.06
2018-10-17T07:11:28.617Z,24.02
2018-10-17T07:12:37.540Z,23.98
2018-10-17T07:13:46.967Z,24.09
2018-10-17T07:14:56.908Z,24.03
2018-10-17T07:16:06.663Z,24.05
2018-10-17T07:17:16.832Z,24.05
2018-10-17T07:18:26.197Z,24
2018-10-17T07:19:35.635Z,24.1
2018-10-17T07:20:45.334Z,24.03
2018-10-17T07:21:55.019Z,24.02
2018-10-17T07:23:04.556Z,24.08
2018-10-17T07:24:13.731Z,24.05
2018-10-17T07:25:23.035Z,24.08
2018-10-17T07:26:32.885Z,24.02
2018-10-17T07:27:42.572Z,24.08
2018-10-17T07:28:52.321Z,24.05
2018-10-17T07:30:02.539Z,23.95
2018-10-17T07:31:12.561Z,24.09
2018-10-17T07:32:22.957Z,23.97
2018-10-17T07:33:32.905Z,24.09
2018-10-17T07:34:42.863Z,24.02
2018-10-17T07:35:51.863Z,24.06
2018-10-17T07:37:01.768Z,24.1
2018-10-17T07:38:11.471Z,24.06
2018-10-17T07:39:20.897Z,24.06
2018-10-17T07:40:30.058Z,24.05
2018-10-17T07:41:39.563Z,24.03
2018-10-17T07:42:49.246Z,24.1
2018-10-17T07:43:58.952Z,24.03
2018-10-17T07:45:08.144Z,24.08
2018-10-17T07:46:17.613Z,24.1
2018-10-17T07:47:27.029Z,24
2018-10-17T07:48:36.199Z,24.06
2018-10-17T07:49:45.649Z,24.06
2018-10-17T07:50:54.844Z,24.08
2018-10-17T07:52:04.026Z,24.05
2018-10-17T07:53:13.788Z,23.97
2018-10-17T07:54:23.010Z,24.09
2018-10-17T07:55:32.529Z,24.1
2018-10-17T07:56:41.703Z,24.09
2018-10-17T07:57:51.114Z,24.06
2018-10-17T07:59:00.308Z,24.03
2018-10-17T08:00:10.244Z,23.98
2018-10-17T08:01:20.114Z,24.09
2018-10-17T08:02:29.333Z,24.08
2018-10-17T08:03:39.024Z,23.95
2018-10-17T08:04:48.983Z,24.1
2018-10-17T08:05:58.336Z,24.09
2018-10-17T08:07:08.021Z,24.08
2018-10-17T08:08:17.700Z,24.09
2018-10-17T08:09:26.633Z,24.08
2018-10-17T08:10:36.075Z,24.13
2018-10-17T08:11:45.551Z,24.09
2018-10-17T08:12:55.320Z,24.08
2018-10-17T08:14:04.992Z,24.09
2018-10-17T08:15:15.372Z,24.06
2018-10-17T08:16:24.854Z,24.08
2018-10-17T08:17:33.764Z,24.1
2018-10-17T08:18:43.249Z,24.12
2018-10-17T08:19:52.684Z,24.13
2018-10-17T08:21:03.262Z,24.09
2018-10-17T08:22:12.514Z,24.16
2018-10-17T08:23:21.983Z,24.09
2018-10-17T08:24:31.182Z,24.06
2018-10-17T08:25:40.628Z,24.08
2018-10-17T08:26:50.403Z,24.13
2018-10-17T08:27:59.915Z,24.13
2018-10-17T08:29:08.913Z,24.06
2018-10-17T08:30:18.796Z,24.16
2018-10-17T08:31:28.016Z,24.12
2018-10-17T08:32:37.804Z,24.12
2018-10-17T08:33:46.774Z,24.09
2018-10-17T08:34:56.072Z,24.09
2018-10-17T08:36:06.082Z,24.09
2018-10-17T08:37:18.268Z,24.09
2018-10-17T08:38:28.823Z,24.06
2018-10-17T08:39:38.308Z,24.13
2018-10-17T08:40:47.921Z,24.13
2018-10-17T08:41:57.497Z,24.06
2018-10-17T08:43:06.992Z,24.06
2018-10-17T08:44:16.958Z,24.08
2018-10-17T08:45:26.471Z,24.1
2018-10-17T08:46:35.725Z,24.03
2018-10-17T08:47:45.532Z,23.94
2018-10-17T08:48:55.315Z,24.13
2018-10-17T08:50:04.954Z,24.05
2018-10-17T08:51:14.863Z,24.03
2018-10-17T08:52:24.309Z,24.09
2018-10-17T08:53:34.032Z,24.18
2018-10-17T08:54:43.543Z,24.13
2018-10-17T08:55:53.404Z,24.05
2018-10-17T08:57:02.332Z,24.16
2018-10-17T08:58:11.549Z,24.13
2018-10-17T08:59:20.849Z,24.09
2018-10-17T09:00:30.322Z,24.08
2018-10-17T09:01:39.747Z,24.13
2018-10-17T09:02:48.954Z,24.03
2018-10-17T09:03:58.128Z,24.08
2018-10-17T09:05:07.112Z,24.13
2018-10-17T09:06:16.631Z,24.06
2018-10-17T09:07:26.707Z,24.13
2018-10-17T09:08:35.933Z,24.08
2018-10-17T09:09:45.354Z,24.08
2018-10-17T09:10:55.363Z,24.06
2018-10-17T09:12:05.277Z,24.15
2018-10-17T09:13:15.253Z,24.05
2018-10-17T09:14:24.812Z,24.06
2018-10-17T09:15:38.379Z,24.13
2018-10-17T09:16:48.136Z,24.09
2018-10-17T09:17:58.018Z,24.12
2018-10-17T09:19:07.873Z,24.08
2018-10-17T09:20:18.893Z,24.13
2018-10-17T09:21:29.897Z,24.05
2018-10-17T09:22:41.103Z,24.08
2018-10-17T09:23:50.890Z,24.09
2018-10-17T09:25:01.120Z,24.18
2018-10-17T09:26:11.232Z,24.18
2018-10-17T09:27:21.214Z,24.03
2018-10-17T09:28:30.400Z,24.09
2018-10-17T09:29:40.167Z,24.05
2018-10-17T09:30:50.339Z,24.09
2018-10-17T09:31:59.558Z,24.1
2018-10-17T09:33:09.079Z,24.08
2018-10-17T09:34:18.986Z,24.18
2018-10-17T09:35:29.286Z,24.06
2018-10-17T09:36:38.844Z,24.12
2018-10-17T09:37:48.335Z,24.15
2018-10-17T09:38:58.199Z,24.09
2018-10-17T09:40:08.096Z,24.18
2018-10-17T09:41:18.750Z,24.18
2018-10-17T09:42:28.465Z,24.1
2018-10-17T09:43:37.855Z,24.15
2018-10-17T09:44:47.304Z,24.15
2018-10-17T09:45:57.387Z,24.09
2018-10-17T09:47:07.248Z,24.18
2018-10-17T09:48:17.738Z,24.03
2018-10-17T09:49:27.317Z,24.06
2018-10-17T09:50:36.485Z,24.08
2018-10-17T09:51:45.722Z,24.08
2018-10-17T09:52:55.750Z,24.09
2018-10-17T09:54:06.072Z,24.09
2018-10-17T09:55:15.633Z,24.08
2018-10-17T09:56:25.315Z,24.1
2018-10-17T09:57:34.750Z,24.09
2018-10-17T09:58:44.150Z,24.2
2018-10-17T09:59:53.863Z,24.08
2018-10-17T10:01:02.757Z,24.2
2018-10-17T10:02:12.839Z,24.02
2018-10-17T10:03:23.092Z,24.09
2018-10-17T10:04:32.533Z,24.09
2018-10-17T10:05:42.237Z,24.1
2018-10-17T10:06:51.953Z,24.08
2018-10-17T10:08:01.782Z,24.1
2018-10-17T10:09:10.945Z,24.16
2018-10-17T10:10:20.780Z,24.12
2018-10-17T10:11:30.485Z,24.22
2018-10-17T10:12:39.926Z,24.05
2018-10-17T10:13:49.110Z,24.06
2018-10-17T10:14:58.796Z,24.2
2018-10-17T10:16:08.797Z,24.1
2018-10-17T10:17:19.732Z,24.05
2018-10-17T10:18:28.722Z,24.13
2018-10-17T10:19:37.896Z,24.16
2018-10-17T10:20:47.876Z,24.12
2018-10-17T10:21:57.634Z,24.2
2018-10-17T10:23:07.724Z,24.15
2018-10-17T10:24:18.001Z,24.2
2018-10-17T10:25:28.494Z,24.15
2018-10-17T10:26:37.948Z,24.09
2018-10-17T10:27:47.626Z,24.21
2018-10-17T10:28:57.093Z,24.2
2018-10-17T10:30:06.914Z,24.08
2018-10-17T10:31:16.083Z,24.13
2018-10-17T10:32:25.811Z,24.18
2018-10-17T10:33:34.996Z,24.1
2018-10-17T10:34:44.193Z,24.18
2018-10-17T10:35:53.427Z,24.18
2018-10-17T10:37:03.173Z,24.1
2018-10-17T10:38:12.095Z,24.21
2018-10-17T10:39:21.801Z,24.24
2018-10-17T10:40:31.395Z,24.15
2018-10-17T10:41:41.656Z,24.16
2018-10-17T10:42:51.105Z,24.15
2018-10-17T10:44:00.600Z,24.1
2018-10-17T10:45:11.513Z,24.21
2018-10-17T10:46:21.850Z,24.21
2018-10-17T10:47:31.034Z,24.13
2018-10-17T10:48:40.460Z,24.09
2018-10-17T10:49:49.649Z,24.15
2018-10-17T10:50:59.320Z,24.16
2018-10-17T10:52:09.357Z,24.15
2018-10-17T10:53:18.964Z,24.18
2018-10-17T10:54:28.403Z,24.12
2018-10-17T10:55:37.835Z,24.18
2018-10-17T10:56:47.256Z,24.16
2018-10-17T10:57:57.239Z,24.08
2018-10-17T10:59:07.116Z,24.24
2018-10-17T11:00:16.042Z,24.16
2018-10-17T11:01:26.108Z,24.24
2018-10-17T11:02:35.553Z,24.1
2018-10-17T11:03:45.245Z,24.18
2018-10-17T11:04:55.516Z,24.21
2018-10-17T11:06:05.475Z,24.16
2018-10-17T11:07:14.653Z,24.2
2018-10-17T11:08:23.916Z,24.22
2018-10-17T11:09:33.349Z,24.12
2018-10-17T11:10:42.825Z,24.18
2018-10-17T11:11:52.267Z,24.2
2018-10-17T11:13:01.882Z,24.16
2018-10-17T11:14:12.574Z,24.1
2018-10-17T11:15:23.308Z,24.13
2018-10-17T11:16:32.499Z,24.13
2018-10-17T11:17:41.873Z,24.15
2018-10-17T11:18:51.042Z,24.16
2018-10-17T11:19:59.947Z,24.16
2018-10-17T11:21:09.302Z,24.25
2018-10-17T11:22:19.443Z,24.16
2018-10-17T11:23:28.357Z,24.16
2018-10-17T11:24:38.066Z,24.13
2018-10-17T11:25:47.764Z,24.21
2018-10-17T11:26:57.054Z,24.24
2018-10-17T11:28:06.598Z,24.12
2018-10-17T11:29:16.807Z,24.2
2018-10-17T11:30:26.082Z,24.18
2018-10-17T11:31:35.847Z,24.09
2018-10-17T11:32:45.704Z,24.16
2018-10-17T11:33:54.876Z,24.27
2018-10-17T11:35:04.205Z,24.2
2018-10-17T11:36:13.195Z,24.22
2018-10-17T11:37:22.615Z,24.28
2018-10-17T11:38:32.354Z,24.21
2018-10-17T11:39:41.779Z,24.16
2018-10-17T11:40:50.999Z,24.18
2018-10-17T11:42:00.756Z,24.3
2018-10-17T11:43:10.107Z,24.18
2018-10-17T11:44:19.814Z,24.18
2018-10-17T11:45:29.599Z,24.21
2018-10-17T11:46:38.824Z,24.27
2018-10-17T11:47:48.407Z,24.25
2018-10-17T11:48:58.412Z,24.25
2018-10-17T11:50:07.067Z,24.2
2018-10-17T11:51:17.206Z,24.27
2018-10-17T11:52:26.495Z,24.25
2018-10-17T11:53:36.189Z,24.25
2018-10-17T11:54:45.634Z,24.25
2018-10-17T11:55:55.098Z,24.22
2018-10-17T11:57:05.024Z,24.25
2018-10-17T11:58:15.343Z,24.27
2018-10-17T11:59:25.332Z,24.27
2018-10-17T12:00:35.215Z,24.3
2018-10-17T12:01:44.931Z,24.3
2018-10-17T12:02:54.198Z,24.25
2018-10-17T12:04:04.432Z,24.21
2018-10-17T12:05:16.644Z,24.25
2018-10-17T12:06:28.049Z,24.21
2018-10-17T12:07:37.856Z,24.21
2018-10-17T12:08:47.314Z,24.2
2018-10-17T12:09:57.297Z,24.25
2018-10-17T12:11:06.308Z,24.28
2018-10-17T12:12:15.609Z,24.22
2018-10-17T12:13:25.039Z,24.24
2018-10-17T12:14:34.528Z,24.21
2018-10-17T12:15:44.353Z,24.08
2018-10-17T12:16:53.530Z,24.31
2018-10-17T12:18:03.074Z,24.25
2018-10-17T12:19:12.921Z,24.24
2018-10-17T12:20:22.990Z,24.28
2018-10-17T12:21:33.389Z,24.3
2018-10-17T12:22:43.444Z,24.31
2018-10-17T12:23:53.212Z,24.24
2018-10-17T12:25:03.007Z,24.28
2018-10-17T12:26:12.733Z,24.27
2018-10-17T12:27:22.382Z,24.25
2018-10-17T12:28:32.486Z,24.21
2018-10-17T12:29:42.413Z,24.27
2018-10-17T12:30:52.114Z,24.32
2018-10-17T12:32:01.823Z,24.32
2018-10-17T12:33:11.736Z,24.28
2018-10-17T12:34:22.042Z,24.22
2018-10-17T12:35:31.209Z,24.32
2018-10-17T12:36:40.640Z,24.32
2018-10-17T12:37:50.049Z,24.3
2018-10-17T12:39:00.137Z,24.3
2018-10-17T12:40:09.993Z,24.3
2018-10-17T12:41:20.313Z,24.27
2018-10-17T12:42:29.897Z,24.3
2018-10-17T12:43:39.332Z,24.34
2018-10-17T12:44:49.356Z,24.31
2018-10-17T12:45:59.437Z,24.31
2018-10-17T12:47:09.477Z,24.28
2018-10-17T12:48:19.757Z,24.28
2018-10-17T12:49:28.948Z,24.21
2018-10-17T12:50:38.731Z,24.34
2018-10-17T12:51:47.910Z,24.27
2018-10-17T12:52:57.953Z,24.2
2018-10-17T12:54:08.632Z,24.31
2018-10-17T12:55:18.653Z,24.25
2018-10-17T12:56:27.976Z,24.24
2018-10-17T12:57:37.421Z,24.31
2018-10-17T12:58:47.442Z,24.27
2018-10-17T12:59:56.998Z,24.25
2018-10-17T13:01:06.652Z,24.28
2018-10-17T13:02:16.502Z,24.3
2018-10-17T13:03:25.797Z,24.27
2018-10-17T13:04:35.264Z,24.32
2018-10-17T13:05:44.833Z,24.28
2018-10-17T13:06:54.956Z,24.3
2018-10-17T13:08:04.562Z,24.3
2018-10-17T13:09:14.060Z,24.3
2018-10-17T13:10:23.807Z,24.3
2018-10-17T13:11:33.830Z,24.28
2018-10-17T13:12:44.047Z,24.27
2018-10-17T13:13:53.520Z,24.28
2018-10-17T13:15:03.323Z,24.21
2018-10-17T13:16:12.592Z,24.31
2018-10-17T13:17:22.091Z,24.28
2018-10-17T13:18:32.104Z,24.32
2018-10-17T13:19:41.860Z,24.34
2018-10-17T13:20:51.605Z,24.32
2018-10-17T13:22:01.348Z,24.39
2018-10-17T13:23:11.367Z,24.31
2018-10-17T13:24:21.486Z,24.3
2018-10-17T13:25:30.450Z,24.31
2018-10-17T13:26:39.889Z,24.32
2018-10-17T13:27:49.307Z,24.35
2018-10-17T13:28:58.868Z,24.32
2018-10-17T13:30:09.059Z,24.35
2018-10-17T13:31:18.948Z,24.37
2018-10-17T13:32:28.862Z,24.28
2018-10-17T13:33:37.831Z,24.32
2018-10-17T13:34:47.032Z,24.34
2018-10-17T13:35:56.793Z,24.35
2018-10-17T13:37:06.693Z,24.43
2018-10-17T13:38:16.414Z,24.46
2018-10-17T13:39:26.012Z,24.45
2018-10-17T13:40:35.752Z,24.2
2018-10-17T13:41:45.074Z,24.4
2018-10-17T13:42:54.924Z,24.39
2018-10-17T13:44:04.788Z,24.3
2018-10-17T13:45:14.337Z,24.34
2018-10-17T13:46:24.122Z,24.34
2018-10-17T13:47:33.062Z,24.52
2018-10-17T13:48:42.594Z,24.28
2018-10-17T13:49:52.720Z,24.42
2018-10-17T13:51:02.202Z,24.31
2018-10-17T13:52:12.002Z,24.32
2018-10-17T13:53:21.500Z,24.4
2018-10-17T13:54:30.847Z,24.35
2018-10-17T13:55:40.379Z,24.43
2018-10-17T13:56:49.623Z,24.34
2018-10-17T13:57:59.458Z,24.46
2018-10-17T13:59:08.837Z,24.42
2018-10-17T14:00:18.848Z,24.42
2018-10-17T14:01:28.670Z,24.46
2018-10-17T14:02:38.463Z,24.37
2018-10-17T14:03:47.996Z,24.31
2018-10-17T14:04:57.248Z,24.4
2018-10-17T14:06:07.232Z,24.42
2018-10-17T14:07:16.921Z,24.28
2018-10-17T14:08:26.893Z,24.46
2018-10-17T14:09:36.371Z,24.35
2018-10-17T14:10:46.386Z,24.46
2018-10-17T14:11:56.221Z,24.46
2018-10-17T14:13:05.854Z,24.46
2018-10-17T14:14:15.666Z,24.42
2018-10-17T14:15:25.310Z,24.34
2018-10-17T14:16:35.088Z,24.3
2018-10-17T14:17:44.564Z,24.34
2018-10-17T14:18:53.795Z,24.32
2018-10-17T14:20:02.555Z,24.28
2018-10-17T14:21:12.318Z,24.35
2018-10-17T14:22:21.726Z,24.42
2018-10-17T14:23:31.208Z,24.3
2018-10-17T14:24:40.973Z,24.31
2018-10-17T14:25:50.659Z,24.46
2018-10-17T14:27:00.277Z,24.3
2018-10-17T14:28:09.915Z,24.34
2018-10-17T14:29:19.669Z,24.32
2018-10-17T14:30:29.451Z,24.4
2018-10-17T14:31:38.898Z,24.39
2018-10-17T14:32:48.622Z,24.27
2018-10-17T14:33:58.372Z,24.39
2018-10-17T14:35:08.068Z,24.4
2018-10-17T14:36:17.640Z,24.43
2018-10-17T14:37:28.085Z,24.39
2018-10-17T14:38:37.602Z,24.46
2018-10-17T14:39:47.133Z,24.46
2018-10-17T14:40:56.217Z,24.43
2018-10-17T14:42:05.933Z,24.32
2018-10-17T14:43:15.761Z,24.28
2018-10-17T14:44:25.452Z,24.43
2018-10-17T14:45:34.904Z,24.39
2018-10-17T14:46:44.902Z,24.45
2018-10-17T14:47:54.121Z,24.42
2018-10-17T14:49:04.254Z,24.32
2018-10-17T14:50:14.106Z,24.4
2018-10-17T14:51:23.498Z,24.45
2018-10-17T14:52:32.414Z,24.35
2018-10-17T14:53:42.104Z,24.39
2018-10-17T14:54:51.604Z,24.3
2018-10-17T14:56:01.143Z,24.34
2018-10-17T14:57:11.306Z,24.43
2018-10-17T14:58:21.641Z,24.32
2018-10-17T14:59:31.269Z,24.32
2018-10-17T15:00:40.954Z,24.4
2018-10-17T15:01:50.631Z,24.28
2018-10-17T15:03:00.433Z,24.31